createdAt,value
2019-05-17T03:54:22.918Z,100556.89
2019-05-17T03:56:54.525Z,100554.45
2019-05-17T03:59:25.631Z,100552.24
2019-05-17T04:01:56.845Z,100547.83
2019-05-17T04:04:28.028Z,100550.83
2019-05-17T04:06:59.203Z,100546.45
2019-05-17T04:09:32.790Z,100549.42
2019-05-17T04:12:03.209Z,100548.78
2019-05-17T04:14:34.340Z,100548.52
2019-05-17T04:17:05.496Z,100551.53
2019-05-17T04:19:36.668Z,100547.42
2019-05-17T04:22:07.723Z,100556.48
2019-05-17T04:24:38.898Z,100562.27
2019-05-17T04:27:13.395Z,100561.26
2019-05-17T04:29:42.929Z,100559.40
2019-05-17T04:32:14.139Z,100564.92
2019-05-17T04:34:45.326Z,100571.55
2019-05-17T04:37:16.457Z,100567.20
2019-05-17T04:39:47.653Z,100561.75
2019-05-17T04:42:18.974Z,100558.20
2019-05-17T04:44:52.725Z,100557.70
2019-05-17T04:50:54.465Z,100548.68
2019-05-17T04:53:25.614Z,100536.07
2019-05-17T04:55:56.861Z,100542.11
2019-05-17T04:58:28.981Z,100533.41
2019-05-17T05:01:03.668Z,100538.09
2019-05-17T05:03:33.005Z,100535.08
2019-05-17T05:06:04.143Z,100538.61
2019-05-17T05:08:35.782Z,100526.20
2019-05-17T05:11:06.941Z,100526.23
2019-05-17T05:13:38.096Z,100525.41
2019-05-17T05:16:10.191Z,100525.44
2019-05-17T05:18:42.079Z,100528.45
2019-05-17T05:21:13.361Z,100527.06
2019-05-17T05:23:44.773Z,100522.11
2019-05-17T05:26:15.906Z,100518.20
2019-05-17T05:28:49.585Z,100519.95
2019-05-17T05:31:19.912Z,100522.61
2019-05-17T05:33:52.221Z,100519.61
2019-05-17T05:36:23.607Z,100526.09
2019-05-17T05:38:54.763Z,100519.64
2019-05-17T05:41:25.903Z,100520.39
2019-05-17T05:43:57.059Z,100513.66
2019-05-17T05:46:28.203Z,100512.23
2019-05-17T05:49:01.560Z,100523.56
2019-05-17T05:51:32.225Z,100530.66
2019-05-17T05:54:04.350Z,100528.97
2019-05-17T05:56:36.454Z,100528.14
2019-05-17T05:59:07.802Z,100518.02
2019-05-17T06:01:38.927Z,100520.08
2019-05-17T06:04:11.785Z,100524.99
2019-05-17T06:06:44.094Z,100524.09
2019-05-17T06:09:15.328Z,100523.67
2019-05-17T06:11:46.457Z,100520.37
2019-05-17T06:14:17.587Z,100528.44
2019-05-17T06:16:48.917Z,100534.65
2019-05-17T06:19:22.249Z,100534.47
2019-05-17T06:21:52.851Z,100532.70
2019-05-17T06:24:23.989Z,100534.67
2019-05-17T06:26:55.166Z,100524.09
2019-05-17T06:29:26.401Z,100529.94
2019-05-17T06:31:57.505Z,100527.58
2019-05-17T06:34:28.637Z,100524.39
2019-05-17T06:37:02.063Z,100525.38
2019-05-17T06:39:35.358Z,100521.09
2019-05-17T06:42:08.786Z,100521.45
2019-05-17T06:44:41.715Z,100520.73
2019-05-17T06:47:13.048Z,100530.53
2019-05-17T06:49:44.199Z,100529.75
2019-05-17T06:52:15.275Z,100522.88
2019-05-17T06:54:46.381Z,100530.24
2019-05-17T06:57:18.019Z,100526.08
2019-05-17T06:59:49.203Z,100533.53
2019-05-17T07:02:20.323Z,100524.56
2019-05-17T07:04:52.705Z,100533.39
2019-05-17T07:07:27.181Z,100530.34
2019-05-17T07:10:00.788Z,100538.61
2019-05-17T07:12:33.060Z,100536.14
2019-05-17T07:15:04.780Z,100536.19
2019-05-17T07:17:35.899Z,100536.70
2019-05-17T07:20:07.102Z,100540.33
2019-05-17T07:22:40.857Z,100546.14
2019-05-17T07:25:11.391Z,100542.67
2019-05-17T07:27:45.892Z,100538.99
2019-05-17T07:30:15.948Z,100538.66
2019-05-17T07:32:49.603Z,100544.22
2019-05-17T07:35:19.984Z,100546.16
2019-05-17T07:37:51.408Z,100537.95
2019-05-17T07:40:22.648Z,100536.44
2019-05-17T07:43:07.064Z,100532.27
2019-05-17T07:45:26.727Z,100538.54
2019-05-17T07:48:00.013Z,100535.91
2019-05-17T07:50:30.708Z,100534.56
2019-05-17T07:53:02.136Z,100538.31
2019-05-17T07:55:33.257Z,100544.61
2019-05-17T07:58:04.404Z,100530.49
2019-05-17T08:00:35.523Z,100539.38
2019-05-17T08:03:06.751Z,100538.36
2019-05-17T08:05:40.058Z,100542.73
2019-05-17T08:08:10.962Z,100545.80
2019-05-17T08:10:42.098Z,100538.46
2019-05-17T08:13:25.901Z,100539.00
2019-05-17T08:15:46.261Z,100534.66
2019-05-17T08:18:17.405Z,100547.72
2019-05-17T08:20:51.320Z,100539.89
2019-05-17T08:23:22.496Z,100534.62
2019-05-17T08:25:56.306Z,100537.80
2019-05-17T08:28:27.251Z,100538.64
2019-05-17T08:31:01.140Z,100532.99
2019-05-17T08:33:32.561Z,100532.10
2019-05-17T08:36:03.704Z,100526.81
2019-05-17T08:38:34.857Z,100530.04
2019-05-17T08:41:05.967Z,100520.44
2019-05-17T08:43:45.786Z,100531.24
2019-05-17T08:46:10.552Z,100533.55
2019-05-17T08:48:42.322Z,100531.16
2019-05-17T08:51:13.485Z,100537.02
2019-05-17T08:53:44.606Z,100541.13
2019-05-17T08:56:15.752Z,100539.69
2019-05-17T08:58:46.930Z,100545.92
2019-05-17T09:01:19.589Z,100553.36
2019-05-17T09:03:50.949Z,100545.67
2019-05-17T09:06:29.332Z,100542.50
2019-05-17T09:09:00.949Z,100533.78
2019-05-17T09:11:33.741Z,100528.31
2019-05-17T09:14:05.228Z,100537.13
2019-05-17T09:16:36.381Z,100528.14
2019-05-17T09:19:09.944Z,100520.25
2019-05-17T09:21:40.380Z,100523.86
2019-05-17T09:24:11.482Z,100521.70
2019-05-17T09:26:42.638Z,100522.02
2019-05-17T09:29:13.775Z,100517.46
2019-05-17T09:31:44.879Z,100517.28
2019-05-17T09:34:16.032Z,100512.97
2019-05-17T09:36:49.578Z,100517.12
2019-05-17T09:39:20.181Z,100511.27
2019-05-17T09:41:51.326Z,100520.95
2019-05-17T09:44:23.768Z,100521.14
2019-05-17T09:46:56.002Z,100518.55
2019-05-17T09:49:27.159Z,100514.52
2019-05-17T09:52:00.167Z,100516.48
2019-05-17T09:54:41.621Z,100511.69
2019-05-17T09:57:04.075Z,100505.96
2019-05-17T09:59:36.673Z,100501.66
2019-05-17T10:02:09.500Z,100504.48
2019-05-17T10:04:40.786Z,100494.02
2019-05-17T10:07:11.915Z,100486.16
2019-05-17T10:09:43.012Z,100489.05
2019-05-17T10:12:14.130Z,100485.48
2019-05-17T10:14:45.258Z,100486.61
2019-05-17T10:17:16.375Z,100483.81
2019-05-17T10:19:47.645Z,100486.49
2019-05-17T10:22:20.060Z,100490.31
2019-05-17T10:24:52.259Z,100492.44
2019-05-17T10:27:23.440Z,100493.02
2019-05-17T10:29:54.568Z,100492.75
2019-05-17T10:32:25.833Z,100489.00
2019-05-17T10:34:56.988Z,100486.66
2019-05-17T10:37:30.256Z,100487.49
2019-05-17T10:40:01.950Z,100489.17
2019-05-17T10:42:33.103Z,100487.25
2019-05-17T10:45:05.980Z,100492.18
2019-05-17T10:47:39.464Z,100488.97
2019-05-17T10:50:11.065Z,100490.39
2019-05-17T10:52:42.308Z,100488.00
2019-05-17T10:55:13.539Z,100488.31
2019-05-17T10:57:44.698Z,100491.13
2019-05-17T11:00:16.778Z,100496.00
2019-05-17T11:02:47.928Z,100493.85
2019-05-17T11:05:20.787Z,100494.16
2019-05-17T11:07:51.959Z,100496.17
2019-05-17T11:10:24.167Z,100496.86
2019-05-17T11:12:55.337Z,100493.58
2019-05-17T11:15:27.471Z,100495.05
2019-05-17T11:17:58.590Z,100490.20
2019-05-17T11:20:29.722Z,100494.23
2019-05-17T11:23:00.816Z,100495.98
2019-05-17T11:25:31.985Z,100495.13
2019-05-17T11:28:04.590Z,100493.93
2019-05-17T11:30:35.847Z,100494.18
2019-05-17T11:33:06.943Z,100494.81
2019-05-17T11:35:38.061Z,100497.00
2019-05-17T11:38:09.195Z,100495.88
2019-05-17T11:40:40.356Z,100490.86
2019-05-17T11:43:11.671Z,100493.25
2019-05-17T11:45:42.806Z,100496.20
2019-05-17T11:48:13.973Z,100496.59
2019-05-17T11:50:45.125Z,100496.36
2019-05-17T11:53:16.182Z,100502.94
2019-05-17T11:55:47.358Z,100498.72
2019-05-17T11:58:18.507Z,100496.21
2019-05-17T12:00:49.635Z,100493.29
2019-05-17T12:03:20.731Z,100493.20
2019-05-17T12:05:51.876Z,100502.61
2019-05-17T12:08:36.767Z,100507.56
2019-05-17T12:11:07.893Z,100510.47
2019-05-17T12:13:39.033Z,100509.48
2019-05-17T12:16:10.182Z,100509.77
2019-05-17T12:18:41.336Z,100508.80
2019-05-17T12:21:12.558Z,100511.98
2019-05-17T12:23:43.699Z,100504.66
2019-05-17T12:26:14.822Z,100502.93
2019-05-17T12:28:46.014Z,100502.80
2019-05-17T12:31:17.097Z,100507.56
2019-05-17T12:33:48.334Z,100505.59
2019-05-17T12:36:19.450Z,100504.55
2019-05-17T12:38:50.575Z,100503.88
2019-05-17T12:41:21.703Z,100514.39
2019-05-17T12:43:53.021Z,100505.61
2019-05-17T12:46:24.168Z,100506.80
2019-05-17T12:48:55.650Z,100504.29
2019-05-17T12:51:26.789Z,100497.95
2019-05-17T12:53:57.935Z,100499.39
2019-05-17T12:56:29.117Z,100494.31
2019-05-17T12:59:00.255Z,100492.00
2019-05-17T13:01:31.362Z,100485.92
2019-05-17T13:04:02.662Z,100487.11
2019-05-17T13:06:34.139Z,100485.91
2019-05-17T13:09:06.254Z,100488.54
2019-05-17T13:11:37.378Z,100501.77
2019-05-17T13:14:09.525Z,100497.13
2019-05-17T13:16:40.677Z,100489.50
2019-05-17T13:19:11.791Z,100485.58
2019-05-17T13:21:42.969Z,100489.91
2019-05-17T13:24:14.184Z,100498.39
2019-05-17T13:26:45.314Z,100492.68
2019-05-17T13:29:16.439Z,100496.58
2019-05-17T13:31:47.678Z,100493.02
2019-05-17T13:34:18.812Z,100499.55
2019-05-17T13:36:51.120Z,100503.69
2019-05-17T13:39:22.235Z,100505.72
2019-05-17T13:41:53.426Z,100493.68
2019-05-17T13:44:24.608Z,100490.99
2019-05-17T13:46:55.761Z,100490.25
2019-05-17T13:49:26.888Z,100492.09
2019-05-17T13:51:58.006Z,100500.77
2019-05-17T13:54:29.183Z,100484.42
2019-05-17T13:57:00.424Z,100490.79
2019-05-17T13:59:31.657Z,100481.09
2019-05-17T14:02:02.971Z,100491.59
2019-05-17T14:04:34.199Z,100483.86
2019-05-17T14:07:06.260Z,100483.09
2019-05-17T14:09:37.418Z,100479.71
2019-05-17T14:12:08.939Z,100483.77
2019-05-17T14:14:41.013Z,100476.25
2019-05-17T14:17:13.534Z,100474.42
2019-05-17T14:19:44.681Z,100465.84
2019-05-17T14:22:15.838Z,100466.67
2019-05-17T14:24:47.115Z,100464.77
2019-05-17T14:27:18.297Z,100463.36
2019-05-17T14:29:49.484Z,100459.62
2019-05-17T14:32:20.630Z,100461.13
2019-05-17T14:34:51.787Z,100458.13
2019-05-17T14:37:23.068Z,100455.67
2019-05-17T14:39:54.221Z,100458.09
2019-05-17T14:42:25.383Z,100453.44
2019-05-17T14:44:56.555Z,100451.30
2019-05-17T14:47:27.770Z,100455.28
2019-05-17T14:49:58.918Z,100454.09
2019-05-17T14:52:30.137Z,100447.77
2019-05-17T14:55:01.259Z,100440.41
2019-05-17T14:57:32.396Z,100430.28
2019-05-17T15:00:07.528Z,100424.95
2019-05-17T15:02:43.484Z,100426.64
2019-05-17T15:05:15.215Z,100429.14
2019-05-17T15:07:46.614Z,100441.40
2019-05-17T15:10:17.789Z,100430.61
2019-05-17T15:12:49.982Z,100417.38
2019-05-17T15:15:28.484Z,100424.67
2019-05-17T15:17:54.190Z,100419.78
2019-05-17T15:20:25.368Z,100421.97
2019-05-17T15:22:56.489Z,100424.28
2019-05-17T15:25:27.584Z,100416.12
2019-05-17T15:27:58.728Z,100416.69
2019-05-17T15:30:30.085Z,100418.62
2019-05-17T15:33:01.352Z,100414.47
2019-05-17T15:35:32.499Z,100414.64
2019-05-17T15:38:03.752Z,100416.14
2019-05-17T15:40:35.049Z,100406.84
2019-05-17T15:43:06.241Z,100411.88
2019-05-17T15:45:37.334Z,100409.48
2019-05-17T15:48:08.458Z,100408.61
2019-05-17T15:50:39.608Z,100412.25
2019-05-17T15:53:10.724Z,100397.97
2019-05-17T15:55:41.982Z,100396.99
2019-05-17T15:58:13.111Z,100398.56
2019-05-17T16:00:44.322Z,100399.23
2019-05-17T16:03:15.460Z,100397.78
2019-05-17T16:05:46.695Z,100392.67
2019-05-17T16:08:18.060Z,100390.92
2019-05-17T16:10:49.245Z,100376.48
2019-05-17T16:13:20.558Z,100380.56
2019-05-17T16:15:51.967Z,100378.44
2019-05-17T16:18:24.321Z,100378.58
2019-05-17T16:20:55.426Z,100368.74
2019-05-17T16:23:26.612Z,100372.63
2019-05-17T16:25:57.766Z,100371.73
2019-05-17T16:28:29.011Z,100371.77
2019-05-17T16:31:03.404Z,100367.89
2019-05-17T16:33:36.109Z,100367.52
2019-05-17T16:36:07.288Z,100374.28
2019-05-17T16:38:38.931Z,100372.01
2019-05-17T16:41:11.613Z,100367.48
2019-05-17T16:43:42.742Z,100370.88
2019-05-17T16:46:13.929Z,100376.78
2019-05-17T16:48:45.236Z,100371.45
2019-05-17T16:51:19.719Z,100377.31
2019-05-17T16:53:51.587Z,100376.64
2019-05-17T16:56:23.588Z,100373.84
2019-05-17T16:58:54.811Z,100368.73
2019-05-17T17:01:26.676Z,100371.73
2019-05-17T17:03:58.953Z,100376.73
2019-05-17T17:06:31.909Z,100364.08
2019-05-17T17:09:03.184Z,100366.56
2019-05-17T17:11:35.139Z,100363.56
2019-05-17T17:14:09.521Z,100363.07
2019-05-17T17:16:44.577Z,100365.65
2019-05-17T17:19:19.465Z,100362.73
